Time;durP1;ratioP1;P1;durP2;ratioP2;P2;SDS_P1;SDS_P2;PMS_P1;PMS_P2;Temp;Humidity;BMP_temperature;BMP_pressure;BME280_temperature;BME280_humidity;BME280_pressure;Samples;Min_cycle;Max_cycle;Signal;HPM_P1;HPM_P2
2024/01/30 00:01:22;;;;;;;0.10;0.10;;;9.10;94.50;;;;;;5007629;28;20057;-79
2024/01/30 00:03:48;;;;;;;0.03;0.03;;;9.20;94.50;;;;;;5010005;28;20147;-78
2024/01/30 00:06:13;;;;;;;0.10;0.10;;;9.20;94.50;;;;;;5008348;28;20069;-78
2024/01/30 00:08:39;;;;;;;0.10;0.10;;;9.20;94.50;;;;;;5013014;28;20052;-78
2024/01/30 00:11:05;;;;;;;0.03;0.03;;;9.20;94.50;;;;;;5010384;28;20044;-79
2024/01/30 00:13:30;;;;;;;0.00;0.00;;;9.10;94.60;;;;;;5006356;28;20026;-77
2024/01/30 00:15:56;;;;;;;0.20;0.20;;;9.10;94.70;;;;;;5005980;28;20874;-78
2024/01/30 00:18:22;;;;;;;0.10;0.10;;;9.10;94.80;;;;;;5007974;28;20030;-78
2024/01/30 00:20:47;;;;;;;0.10;0.10;;;9.10;94.80;;;;;;5008908;28;20026;-77
2024/01/30 00:23:13;;;;;;;0.00;0.00;;;9.00;94.80;;;;;;5007854;28;20453;-78
2024/01/30 00:25:39;;;;;;;0.10;0.10;;;9.00;94.90;;;;;;5007926;28;20030;-79
2024/01/30 00:28:05;;;;;;;0.10;0.10;;;9.10;94.90;;;;;;5011039;28;20083;-79
2024/01/30 00:30:30;;;;;;;0.10;0.10;;;9.00;95.10;;;;;;5005910;28;20037;-79
2024/01/30 00:32:56;;;;;;;0.10;0.10;;;8.90;95.20;;;;;;5009450;28;20457;-79
2024/01/30 00:35:22;;;;;;;0.10;0.10;;;8.90;95.40;;;;;;5005970;28;20501;-79
2024/01/30 00:37:48;;;;;;;0.10;0.10;;;8.80;95.50;;;;;;5006889;28;21780;-78
2024/01/30 00:40:15;;;;;;;0.10;0.10;;;8.80;95.60;;;;;;5006585;28;20030;-79
2024/01/30 00:42:41;;;;;;;;;;;8.80;95.80;;;;;;5007491;28;20038;-78
2024/01/30 00:45:14;;;;;;;0.10;0.10;;;8.70;95.90;;;;;;5009943;28;19918;-79
2024/01/30 00:47:39;;;;;;;0.10;0.10;;;8.60;96.10;;;;;;5011977;28;20038;-79
2024/01/30 00:50:05;;;;;;;0.10;0.10;;;8.60;96.20;;;;;;5009773;28;20057;-80
2024/01/30 00:52:32;;;;;;;0.10;0.10;;;8.60;96.30;;;;;;5008132;28;20030;-79
2024/01/30 00:54:58;;;;;;;;;;;8.50;96.40;;;;;;5009273;28;20820;-80
2024/01/30 00:57:24;;;;;;;0.10;0.10;;;8.50;96.50;;;;;;5009371;28;19913;-80
2024/01/30 00:59:50;;;;;;;0.10;0.10;;;8.50;96.70;;;;;;5013172;28;20080;-80
2024/01/30 01:02:17;;;;;;;0.57;0.57;;;8.40;96.80;;;;;;5012291;28;20104;-80
2024/01/30 01:04:44;;;;;;;0.10;0.10;;;8.40;97.00;;;;;;5012195;28;20072;-80
2024/01/30 01:07:10;;;;;;;0.10;0.10;;;8.40;97.10;;;;;;5008546;28;20034;-80
2024/01/30 01:09:36;;;;;;;0.10;0.10;;;8.30;97.20;;;;;;5007930;28;20034;-80
2024/01/30 01:12:02;;;;;;;0.63;0.63;;;8.40;97.30;;;;;;5009508;28;20026;-81
2024/01/30 01:14:28;;;;;;;0.10;0.10;;;8.30;97.30;;;;;;5012025;28;20604;-81
2024/01/30 01:16:53;;;;;;;0.10;0.10;;;8.30;97.40;;;;;;5007821;28;20100;-80
2024/01/30 01:19:19;;;;;;;0.10;0.10;;;8.30;97.50;;;;;;5018930;28;20108;-81
2024/01/30 01:21:45;;;;;;;0.17;0.17;;;8.40;97.50;;;;;;5009374;28;20052;-81
2024/01/30 01:24:10;;;;;;;0.47;0.47;;;8.40;97.70;;;;;;5007902;28;20093;-80
2024/01/30 01:26:36;;;;;;;0.10;0.10;;;8.40;97.40;;;;;;5010027;28;20117;-79
2024/01/30 01:29:04;;;;;;;0.10;0.10;;;8.40;97.50;;;;;;5008719;28;20032;-81
2024/01/30 01:31:29;;;;;;;0.10;0.10;;;8.20;97.70;;;;;;5008784;28;20030;-80
2024/01/30 01:33:55;;;;;;;0.10;0.10;;;8.20;97.90;;;;;;5008288;28;20032;-81
2024/01/30 01:36:21;;;;;;;0.10;0.10;;;8.10;98.00;;;;;;5012806;28;20557;-79
2024/01/30 01:38:47;;;;;;;0.00;0.00;;;8.10;98.10;;;;;;5005209;28;20030;-79
2024/01/30 01:41:12;;;;;;;1.20;1.10;;;8.20;98.30;;;;;;5008732;28;20038;-80
2024/01/30 01:43:39;;;;;;;0.20;0.20;;;8.10;98.30;;;;;;5006484;28;20060;-80
2024/01/30 01:46:06;;;;;;;0.10;0.10;;;8.10;98.40;;;;;;5009607;28;20136;-80
2024/01/30 01:48:32;;;;;;;0.10;0.10;;;8.10;98.40;;;;;;5008209;28;20057;-80
2024/01/30 01:50:59;;;;;;;0.10;0.10;;;8.10;98.60;;;;;;5011325;28;20033;-79
2024/01/30 01:53:25;;;;;;;0.80;0.80;;;8.10;98.60;;;;;;5008323;28;20253;-79
2024/01/30 01:55:52;;;;;;;0.10;0.10;;;8.10;98.60;;;;;;5010213;28;20041;-79
2024/01/30 01:58:20;;;;;;;0.10;0.10;;;8.20;98.60;;;;;;5009122;28;20037;-80
2024/01/30 02:00:46;;;;;;;0.10;0.10;;;8.20;98.50;;;;;;5008398;28;20053;-80
2024/01/30 02:03:13;;;;;;;0.10;0.10;;;8.20;98.40;;;;;;5007704;28;20871;-79
2024/01/30 02:05:41;;;;;;;0.10;0.10;;;8.20;98.40;;;;;;5008746;28;20288;-78
2024/01/30 02:08:08;;;;;;;0.10;0.10;;;8.20;98.40;;;;;;5007021;28;20042;-79
2024/01/30 02:10:34;;;;;;;0.10;0.10;;;8.20;98.50;;;;;;5006606;28;20026;-78
2024/01/30 02:13:00;;;;;;;0.30;0.30;;;8.20;98.50;;;;;;5005455;28;20030;-79
2024/01/30 02:15:25;;;;;;;0.10;0.10;;;8.20;98.50;;;;;;5007339;28;20032;-78
2024/01/30 02:17:51;;;;;;;0.10;0.10;;;8.20;98.50;;;;;;5007799;28;20029;-79
2024/01/30 02:20:17;;;;;;;0.10;0.10;;;8.30;98.40;;;;;;5006932;28;20026;-78
2024/01/30 02:22:43;;;;;;;3.47;1.45;;;8.30;98.30;;;;;;5007644;28;20037;-78
2024/01/30 02:25:09;;;;;;;0.52;0.52;;;8.30;98.20;;;;;;5008884;28;20049;-78
2024/01/30 02:27:34;;;;;;;0.22;0.22;;;8.30;98.10;;;;;;5007481;28;20064;-79
2024/01/30 02:30:00;;;;;;;0.20;0.20;;;8.30;98.10;;;;;;5007705;28;20077;-78
2024/01/30 02:32:26;;;;;;;0.10;0.10;;;8.30;98.20;;;;;;5007913;28;20034;-78
2024/01/30 02:34:51;;;;;;;0.10;0.10;;;8.30;98.20;;;;;;5004727;28;20028;-78
2024/01/30 02:37:17;;;;;;;0.10;0.10;;;8.30;98.20;;;;;;5005767;28;20033;-78
2024/01/30 02:39:43;;;;;;;0.10;0.10;;;8.30;98.20;;;;;;5006636;28;20096;-78
2024/01/30 02:42:08;;;;;;;0.10;0.10;;;8.20;98.30;;;;;;5005853;28;20030;-79
2024/01/30 02:44:34;;;;;;;0.47;0.47;;;8.20;98.40;;;;;;5006255;28;20041;-78
2024/01/30 02:46:59;;;;;;;0.10;0.10;;;8.10;98.50;;;;;;5007476;28;20092;-77
2024/01/30 02:49:25;;;;;;;0.10;0.10;;;8.20;98.50;;;;;;5008129;28;20022;-79
2024/01/30 02:51:53;;;;;;;0.10;0.10;;;8.20;98.40;;;;;;5007899;28;20034;-78
2024/01/30 02:54:19;;;;;;;0.10;0.10;;;8.20;98.40;;;;;;5009950;28;20040;-79
2024/01/30 02:56:44;;;;;;;0.10;0.10;;;8.20;98.50;;;;;;5009347;28;20044;-80
2024/01/30 02:59:10;;;;;;;0.10;0.10;;;8.20;98.50;;;;;;5010160;28;20513;-80
2024/01/30 03:01:46;;;;;;;0.10;0.10;;;8.20;98.40;;;;;;5006303;28;20041;-80
2024/01/30 03:04:12;;;;;;;0.10;0.10;;;8.30;98.30;;;;;;5008560;28;20037;-79
2024/01/30 03:06:37;;;;;;;0.10;0.10;;;8.30;98.20;;;;;;5008117;28;20030;-79
2024/01/30 03:09:04;;;;;;;0.10;0.10;;;8.30;98.20;;;;;;5011371;28;20040;-79
2024/01/30 03:11:30;;;;;;;0.10;0.10;;;8.30;98.10;;;;;;5006973;28;20489;-78
2024/01/30 03:13:56;;;;;;;0.10;0.10;;;8.30;98.10;;;;;;5007030;28;20092;-79
2024/01/30 03:16:22;;;;;;;0.10;0.10;;;8.30;98.20;;;;;;5007718;28;20026;-78
2024/01/30 03:18:48;;;;;;;0.10;0.10;;;8.30;98.20;;;;;;5009741;28;20037;-77
2024/01/30 03:21:14;;;;;;;0.77;0.77;;;8.20;98.20;;;;;;5009122;28;20026;-78
2024/01/30 03:23:40;;;;;;;0.10;0.10;;;8.20;98.40;;;;;;5008554;28;20041;-77
2024/01/30 03:26:06;;;;;;;0.45;0.45;;;8.20;98.30;;;;;;5007719;28;20032;-78
2024/01/30 03:28:32;;;;;;;0.10;0.10;;;8.20;98.40;;;;;;5006452;28;20030;-78
2024/01/30 03:30:58;;;;;;;0.10;0.10;;;8.20;98.40;;;;;;5008329;28;20045;-77
2024/01/30 03:33:23;;;;;;;0.10;0.10;;;8.20;98.20;;;;;;5001088;28;20041;-78
2024/01/30 03:35:49;;;;;;;0.10;0.10;;;8.20;98.30;;;;;;5006041;28;20030;-78
2024/01/30 03:38:14;;;;;;;0.10;0.10;;;8.20;98.40;;;;;;5006924;28;20030;-78
2024/01/30 03:40:40;;;;;;;0.20;0.20;;;8.10;98.40;;;;;;5007575;28;20034;-77
2024/01/30 03:43:06;;;;;;;0.10;0.10;;;8.10;98.40;;;;;;5006208;28;20060;-79
2024/01/30 03:45:31;;;;;;;0.10;0.10;;;8.10;98.50;;;;;;5002238;28;20104;-78
2024/01/30 03:47:57;;;;;;;0.00;0.00;;;8.00;98.60;;;;;;5006387;28;20032;-78
2024/01/30 03:50:23;;;;;;;0.10;0.10;;;8.00;98.60;;;;;;5008609;28;20038;-78
2024/01/30 03:52:49;;;;;;;0.10;0.10;;;8.10;98.50;;;;;;5006984;28;20073;-79
2024/01/30 03:55:14;;;;;;;0.10;0.10;;;8.00;98.50;;;;;;5000887;28;20096;-78
2024/01/30 03:57:40;;;;;;;0.10;0.10;;;8.00;98.60;;;;;;5010238;28;20639;-78
2024/01/30 04:00:06;;;;;;;0.10;0.10;;;8.00;98.60;;;;;;5008451;28;20129;-80
2024/01/30 04:02:32;;;;;;;0.20;0.20;;;8.00;98.60;;;;;;5008704;28;20580;-79
2024/01/30 04:04:58;;;;;;;0.10;0.10;;;8.00;98.60;;;;;;5008896;28;20051;-78
2024/01/30 04:07:24;;;;;;;0.20;0.20;;;7.90;98.60;;;;;;5008159;28;20034;-79
2024/01/30 04:09:49;;;;;;;0.10;0.10;;;7.90;98.60;;;;;;5013076;28;20022;-79
2024/01/30 04:12:15;;;;;;;0.25;0.25;;;8.00;98.40;;;;;;5009598;28;20109;-79
2024/01/30 04:14:41;;;;;;;0.10;0.10;;;7.90;98.40;;;;;;5004588;28;20104;-80
2024/01/30 04:17:06;;;;;;;0.10;0.10;;;7.90;98.50;;;;;;5012444;28;20038;-79
2024/01/30 04:19:32;;;;;;;0.10;0.10;;;7.90;98.60;;;;;;5012944;28;20216;-79
2024/01/30 04:21:58;;;;;;;0.10;0.10;;;7.80;98.70;;;;;;5009897;28;20017;-80
2024/01/30 04:24:23;;;;;;;0.10;0.10;;;7.70;98.90;;;;;;5009673;28;20042;-79
2024/01/30 04:26:49;;;;;;;0.10;0.10;;;7.70;99.10;;;;;;5011369;28;20074;-79
2024/01/30 04:29:14;;;;;;;0.10;0.10;;;7.60;99.40;;;;;;5010777;28;20080;-79
2024/01/30 04:31:40;;;;;;;0.10;0.10;;;7.60;99.60;;;;;;5008166;28;20026;-79
2024/01/30 04:34:06;;;;;;;0.10;0.10;;;7.50;99.60;;;;;;5008678;28;20449;-78
2024/01/30 04:36:31;;;;;;;0.80;0.80;;;7.50;99.80;;;;;;5008942;28;20481;-78
2024/01/30 04:38:57;;;;;;;0.52;0.52;;;7.40;99.90;;;;;;5007944;28;20037;-78
2024/01/30 04:41:23;;;;;;;0.10;0.10;;;7.50;99.90;;;;;;5008968;28;20034;-78
2024/01/30 04:43:48;;;;;;;0.10;0.10;;;7.40;99.90;;;;;;5008853;28;20090;-78
2024/01/30 04:46:14;;;;;;;0.30;0.30;;;7.40;99.90;;;;;;5011496;28;20038;-78
2024/01/30 04:48:40;;;;;;;0.20;0.20;;;7.40;99.90;;;;;;5010550;28;20018;-79
2024/01/30 04:51:05;;;;;;;0.10;0.10;;;7.30;99.90;;;;;;5011275;28;20021;-78
2024/01/30 04:53:31;;;;;;;0.30;0.30;;;7.30;99.90;;;;;;5012030;28;20025;-79
2024/01/30 04:55:57;;;;;;;0.90;0.90;;;7.40;99.90;;;;;;5010314;28;20041;-78
2024/01/30 04:58:22;;;;;;;0.10;0.10;;;7.40;99.90;;;;;;5009553;28;20034;-78
2024/01/30 05:00:51;;;;;;;0.10;0.10;;;7.40;99.90;;;;;;5009966;28;20626;-78
2024/01/30 05:03:18;;;;;;;0.10;0.10;;;7.40;99.90;;;;;;5012352;28;20888;-78
2024/01/30 05:05:43;;;;;;;0.32;0.30;;;7.30;99.90;;;;;;5015732;28;20068;-80
2024/01/30 05:08:09;;;;;;;0.10;0.10;;;7.30;99.90;;;;;;5008900;28;20061;-77
2024/01/30 05:10:34;;;;;;;0.10;0.10;;;7.30;99.90;;;;;;5012902;28;20079;-79
2024/01/30 05:13:00;;;;;;;0.10;0.10;;;7.20;99.90;;;;;;5011919;28;20034;-79
2024/01/30 05:15:26;;;;;;;0.60;0.47;;;7.30;99.90;;;;;;5014711;28;20117;-79
2024/01/30 05:17:51;;;;;;;0.10;0.10;;;7.30;99.90;;;;;;5014012;28;20116;-78
2024/01/30 05:20:17;;;;;;;0.10;0.10;;;7.30;99.90;;;;;;5012573;28;20117;-80
2024/01/30 05:22:44;;;;;;;0.10;0.10;;;7.30;99.90;;;;;;5011473;28;20034;-79
2024/01/30 05:25:12;;;;;;;0.10;0.10;;;7.40;99.90;;;;;;5007595;28;20034;-78
2024/01/30 05:27:37;;;;;;;0.10;0.10;;;7.50;99.70;;;;;;5009128;28;20034;-78
2024/01/30 05:30:04;;;;;;;0.10;0.10;;;7.60;99.40;;;;;;5008750;28;20037;-78
2024/01/30 05:32:30;;;;;;;0.10;0.10;;;7.60;99.30;;;;;;5008219;28;20036;-79
2024/01/30 05:34:55;;;;;;;0.10;0.10;;;7.50;99.50;;;;;;5003958;28;20109;-78
2024/01/30 05:37:21;;;;;;;0.40;0.40;;;7.40;99.60;;;;;;5010659;28;20133;-79
2024/01/30 05:39:47;;;;;;;0.10;0.10;;;7.40;99.70;;;;;;5010480;28;20034;-78
2024/01/30 05:42:12;;;;;;;0.10;0.10;;;7.40;99.80;;;;;;5006784;28;20065;-80
2024/01/30 05:44:38;;;;;;;0.10;0.10;;;7.30;99.90;;;;;;5004648;28;20030;-79
2024/01/30 05:47:04;;;;;;;0.10;0.10;;;7.30;99.90;;;;;;5008371;28;20472;-79
2024/01/30 05:49:30;;;;;;;0.10;0.10;;;7.30;99.90;;;;;;5017512;28;20092;-77
2024/01/30 05:51:55;;;;;;;0.10;0.10;;;7.30;99.90;;;;;;5008437;28;20085;-79
2024/01/30 05:54:21;;;;;;;0.10;0.10;;;7.20;99.90;;;;;;5010986;28;20030;-78
2024/01/30 05:56:46;;;;;;;0.00;0.00;;;7.20;99.90;;;;;;5010439;28;20022;-80
2024/01/30 05:59:12;;;;;;;0.10;0.10;;;7.20;99.90;;;;;;5010324;28;20022;-79
2024/01/30 06:01:38;;;;;;;0.10;0.10;;;7.20;99.90;;;;;;5005943;28;20128;-79
2024/01/30 06:04:04;;;;;;;0.10;0.10;;;7.20;99.90;;;;;;5006100;28;20042;-79
2024/01/30 06:06:29;;;;;;;0.10;0.10;;;7.20;99.90;;;;;;4998732;28;20056;-78
2024/01/30 06:08:56;;;;;;;0.10;0.10;;;7.20;99.90;;;;;;5008424;28;20045;-79
2024/01/30 06:11:21;;;;;;;0.10;0.10;;;7.30;99.90;;;;;;5007985;28;20770;-78
2024/01/30 06:13:47;;;;;;;0.10;0.10;;;7.20;99.90;;;;;;5008711;28;20100;-77
2024/01/30 06:16:13;;;;;;;0.10;0.10;;;7.20;99.90;;;;;;5009064;28;20045;-78
2024/01/30 06:18:38;;;;;;;0.10;0.10;;;7.30;99.90;;;;;;5007987;28;20049;-78
2024/01/30 06:21:05;;;;;;;0.10;0.10;;;7.30;99.90;;;;;;5003655;28;20042;-78
2024/01/30 06:23:31;;;;;;;;;;;7.30;99.90;;;;;;5007872;28;20021;-77
2024/01/30 06:25:57;;;;;;;0.10;0.10;;;7.20;99.90;;;;;;5007906;28;20357;-78
2024/01/30 06:28:22;;;;;;;0.00;0.00;;;7.30;99.90;;;;;;5009419;28;20034;-79
2024/01/30 06:30:48;;;;;;;0.17;0.17;;;7.30;99.90;;;;;;5007064;28;20048;-77
2024/01/30 06:33:13;;;;;;;0.10;0.10;;;7.30;99.90;;;;;;5010226;28;20030;-78
2024/01/30 06:35:40;;;;;;;0.10;0.10;;;7.30;99.90;;;;;;5005374;28;20029;-77
2024/01/30 06:38:06;;;;;;;0.10;0.10;;;7.30;99.90;;;;;;5012334;28;20032;-77
2024/01/30 06:40:32;;;;;;;0.10;0.10;;;7.30;99.90;;;;;;5006297;28;20372;-77
2024/01/30 06:42:57;;;;;;;0.10;0.10;;;7.30;99.90;;;;;;5010944;28;20045;-78
2024/01/30 06:45:23;;;;;;;0.10;0.10;;;7.30;99.90;;;;;;5010287;28;20128;-78
2024/01/30 06:47:49;;;;;;;0.10;0.10;;;7.30;99.90;;;;;;5009027;28;20128;-78
2024/01/30 06:50:14;;;;;;;0.10;0.10;;;7.30;99.90;;;;;;5007210;28;20053;-78
2024/01/30 06:52:40;;;;;;;0.10;0.10;;;7.20;99.90;;;;;;5007021;28;20025;-78
2024/01/30 06:55:06;;;;;;;0.10;0.10;;;7.20;99.90;;;;;;5009175;28;20600;-78
2024/01/30 06:57:32;;;;;;;0.52;0.52;;;7.20;99.90;;;;;;5011526;28;20744;-78
2024/01/30 06:59:57;;;;;;;0.10;0.10;;;7.20;99.90;;;;;;5012828;28;20033;-78
2024/01/30 07:02:23;;;;;;;0.10;0.10;;;7.20;99.90;;;;;;5007834;28;20109;-79
2024/01/30 07:04:49;;;;;;;2.40;2.30;;;7.10;99.90;;;;;;5005774;28;20026;-78
2024/01/30 07:07:15;;;;;;;0.10;0.10;;;7.10;99.90;;;;;;5005126;28;20456;-79
2024/01/30 07:09:41;;;;;;;0.10;0.10;;;7.00;99.90;;;;;;5004103;28;20034;-79
2024/01/30 07:12:07;;;;;;;0.10;0.10;;;7.00;99.90;;;;;;5012630;28;20084;-78
2024/01/30 07:14:33;;;;;;;0.10;0.10;;;7.00;99.90;;;;;;5013117;28;20057;-78
2024/01/30 07:16:59;;;;;;;0.10;0.10;;;6.90;99.90;;;;;;5013044;28;20026;-78
2024/01/30 07:19:24;;;;;;;0.28;0.28;;;6.90;99.90;;;;;;5009748;28;20057;-77
2024/01/30 07:21:50;;;;;;;0.10;0.10;;;7.00;99.90;;;;;;5011097;28;20084;-77
2024/01/30 07:24:16;;;;;;;0.10;0.10;;;7.00;99.90;;;;;;5009594;28;20025;-77
2024/01/30 07:26:41;;;;;;;0.20;0.20;;;7.00;99.90;;;;;;5008406;28;20037;-77
2024/01/30 07:29:07;;;;;;;0.10;0.10;;;7.00;99.90;;;;;;5004748;28;20030;-78
2024/01/30 07:31:32;;;;;;;0.10;0.10;;;7.00;99.90;;;;;;5006882;28;20029;-77
2024/01/30 07:33:58;;;;;;;0.10;0.10;;;7.00;99.90;;;;;;5005836;28;20033;-77
2024/01/30 07:36:24;;;;;;;0.10;0.10;;;7.10;99.90;;;;;;5008095;28;20586;-77
2024/01/30 07:38:49;;;;;;;0.10;0.10;;;7.10;99.90;;;;;;5016481;28;20041;-77
2024/01/30 07:41:15;;;;;;;0.10;0.10;;;7.10;99.90;;;;;;5008823;28;20080;-78
2024/01/30 07:43:41;;;;;;;0.10;0.10;;;7.20;99.90;;;;;;5010155;28;20509;-78
2024/01/30 07:46:06;;;;;;;0.10;0.10;;;7.20;99.90;;;;;;5009988;28;20099;-77
2024/01/30 07:48:34;;;;;;;0.10;0.10;;;7.20;99.90;;;;;;5014443;28;20033;-78
2024/01/30 07:51:00;;;;;;;0.30;0.30;;;7.20;99.90;;;;;;5006329;28;20026;-77
2024/01/30 07:53:25;;;;;;;0.10;0.10;;;7.20;99.90;;;;;;5011968;28;20444;-78
2024/01/30 07:55:52;;;;;;;0.20;0.20;;;7.20;99.90;;;;;;5010446;28;20038;-77
2024/01/30 07:58:17;;;;;;;0.10;0.10;;;7.30;99.70;;;;;;5014424;28;20033;-77
2024/01/30 08:00:43;;;;;;;0.10;0.10;;;7.30;99.70;;;;;;5010692;28;20497;-78
2024/01/30 08:03:08;;;;;;;0.10;0.10;;;7.30;99.60;;;;;;5016201;28;20466;-78
2024/01/30 08:05:34;;;;;;;0.10;0.10;;;7.40;99.50;;;;;;5011257;28;20033;-78
2024/01/30 08:08:00;;;;;;;0.73;0.73;;;7.50;99.20;;;;;;5005364;28;20498;-78
2024/01/30 08:10:25;;;;;;;0.10;0.10;;;7.80;98.80;;;;;;5011840;28;20560;-78
2024/01/30 08:12:51;;;;;;;0.10;0.10;;;7.80;98.30;;;;;;5017343;28;20022;-78
2024/01/30 08:15:17;;;;;;;0.10;0.10;;;7.90;98.10;;;;;;5017969;28;20026;-79
2024/01/30 08:17:44;;;;;;;0.08;0.08;;;7.80;98.20;;;;;;5019530;28;20033;-78
2024/01/30 08:20:11;;;;;;;0.10;0.10;;;7.70;98.30;;;;;;5007227;28;20426;-77
2024/01/30 08:22:39;;;;;;;0.10;0.10;;;7.70;98.30;;;;;;5006093;28;20022;-78
2024/01/30 08:25:06;;;;;;;0.10;0.10;;;7.70;98.40;;;;;;5011476;28;20033;-79
2024/01/30 08:27:31;;;;;;;0.13;0.13;;;7.70;98.30;;;;;;5011397;28;20136;-78
2024/01/30 08:29:57;;;;;;;0.00;0.00;;;7.70;98.30;;;;;;5006465;28;20140;-78
2024/01/30 08:32:23;;;;;;;0.10;0.10;;;7.70;98.40;;;;;;5006360;28;20044;-78
2024/01/30 08:34:49;;;;;;;0.55;0.55;;;7.80;98.20;;;;;;5006606;28;20885;-78
2024/01/30 08:37:16;;;;;;;0.10;0.10;;;7.80;98.10;;;;;;5005928;28;20081;-78
2024/01/30 08:39:43;;;;;;;0.50;0.50;;;8.00;97.90;;;;;;5012516;28;20849;-78
2024/01/30 08:42:09;;;;;;;0.10;0.10;;;8.20;97.50;;;;;;5003963;28;20062;-79
2024/01/30 08:44:34;;;;;;;0.10;0.10;;;8.20;97.20;;;;;;5005204;28;20397;-78
2024/01/30 08:47:00;;;;;;;0.00;0.00;;;8.30;96.90;;;;;;5011891;28;20505;-78
2024/01/30 08:49:25;;;;;;;0.10;0.10;;;8.60;96.60;;;;;;5006669;28;20018;-78
2024/01/30 08:51:51;;;;;;;0.10;0.10;;;9.00;95.70;;;;;;5006088;28;20956;-78
2024/01/30 08:54:17;;;;;;;0.10;0.10;;;9.20;95.50;;;;;;5006385;28;20573;-78
2024/01/30 08:56:43;;;;;;;1.73;0.93;;;9.40;94.80;;;;;;5004834;28;20081;-78
2024/01/30 08:59:08;;;;;;;0.20;0.20;;;9.50;94.50;;;;;;4998526;28;20037;-78
2024/01/30 09:01:34;;;;;;;0.00;0.00;;;9.60;94.60;;;;;;5006365;28;20030;-78
2024/01/30 09:04:00;;;;;;;0.10;0.10;;;9.80;94.30;;;;;;5008106;28;20033;-78
2024/01/30 09:06:27;;;;;;;0.10;0.10;;;9.80;93.90;;;;;;5009108;28;20022;-78
2024/01/30 09:08:53;;;;;;;0.30;0.30;;;9.90;93.40;;;;;;5014455;28;20115;-78
2024/01/30 09:11:19;;;;;;;0.17;0.17;;;10.00;94.00;;;;;;5009409;28;20022;-78
2024/01/30 09:13:45;;;;;;;0.17;0.17;;;10.20;93.20;;;;;;5009799;28;20085;-78
2024/01/30 09:16:11;;;;;;;0.10;0.10;;;10.50;92.90;;;;;;5014443;28;20030;-77
2024/01/30 09:18:36;;;;;;;0.10;0.10;;;10.70;92.70;;;;;;5006088;28;20030;-78
2024/01/30 09:21:02;;;;;;;0.17;0.17;;;10.50;92.40;;;;;;5014202;28;20525;-78
2024/01/30 09:23:28;;;;;;;0.00;0.00;;;10.60;92.60;;;;;;5010001;28;20052;-78
2024/01/30 09:25:54;;;;;;;0.00;0.00;;;10.80;92.30;;;;;;5009896;28;20076;-79
2024/01/30 09:28:19;;;;;;;0.10;0.10;;;10.90;92.20;;;;;;5012983;28;20049;-78
2024/01/30 09:30:45;;;;;;;0.10;0.10;;;11.00;92.00;;;;;;5016569;28;20033;-79
2024/01/30 09:33:11;;;;;;;0.10;0.10;;;11.00;91.80;;;;;;5009033;28;20504;-77
2024/01/30 09:35:36;;;;;;;0.47;0.47;;;10.80;91.60;;;;;;5018093;28;20034;-78
2024/01/30 09:38:03;;;;;;;0.00;0.00;;;10.70;91.40;;;;;;5021068;28;20042;-78
2024/01/30 09:40:28;;;;;;;0.00;0.00;;;10.90;91.30;;;;;;5019551;28;20033;-78
2024/01/30 09:42:55;;;;;;;0.00;0.00;;;11.10;90.90;;;;;;5015525;28;20057;-77
2024/01/30 09:45:25;;;;;;;0.00;0.00;;;11.30;90.70;;;;;;5009876;28;20886;-78
2024/01/30 09:47:51;;;;;;;0.00;0.00;;;11.40;90.10;;;;;;5013658;28;20026;-77
2024/01/30 09:50:17;;;;;;;0.00;0.00;;;11.60;90.00;;;;;;5015855;28;20671;-78
2024/01/30 09:52:47;;;;;;;0.10;0.10;;;11.80;89.10;;;;;;5008564;28;20030;-78
2024/01/30 09:55:13;;;;;;;0.10;0.10;;;11.70;89.30;;;;;;5015584;28;20779;-78
2024/01/30 09:57:39;;;;;;;0.00;0.00;;;11.90;89.80;;;;;;5020930;28;20033;-78
2024/01/30 10:00:08;;;;;;;0.00;0.00;;;12.20;88.90;;;;;;5014148;28;20867;-78
2024/01/30 10:02:35;;;;;;;0.00;0.00;;;12.20;87.80;;;;;;5008241;28;20036;-78
2024/01/30 10:05:01;;;;;;;0.00;0.00;;;12.30;88.80;;;;;;5010576;28;20108;-78
2024/01/30 10:07:27;;;;;;;0.00;0.00;;;12.40;88.70;;;;;;5008548;28;20131;-78
2024/01/30 10:09:55;;;;;;;0.57;0.57;;;12.30;87.20;;;;;;5010902;28;20058;-78
2024/01/30 10:12:21;;;;;;;0.00;0.00;;;12.30;87.00;;;;;;5001732;28;20026;-78
2024/01/30 10:14:46;;;;;;;0.00;0.00;;;12.30;88.80;;;;;;5012923;28;20027;-78
2024/01/30 10:17:12;;;;;;;0.00;0.00;;;12.30;88.30;;;;;;5008179;28;20026;-78
2024/01/30 10:19:39;;;;;;;0.10;0.10;;;12.30;86.70;;;;;;5005142;28;20900;-79
2024/01/30 10:22:05;;;;;;;0.00;0.00;;;12.50;87.10;;;;;;5008780;28;20068;-78
2024/01/30 10:24:33;;;;;;;0.07;0.07;;;12.50;86.70;;;;;;5008360;28;20073;-78
2024/01/30 10:26:58;;;;;;;0.50;0.50;;;12.80;88.10;;;;;;5013648;28;20026;-78
2024/01/30 10:29:24;;;;;;;0.00;0.00;;;12.60;86.80;;;;;;5009453;28;20386;-78
2024/01/30 10:32:00;;;;;;;0.10;0.10;;;12.60;85.90;;;;;;5014532;28;20021;-78
2024/01/30 10:34:26;;;;;;;1.55;0.57;;;12.60;86.10;;;;;;5017723;28;20030;-77
2024/01/30 10:37:00;;;;;;;0.10;0.10;;;12.70;87.00;;;;;;5017159;28;20039;-78
2024/01/30 10:39:30;;;;;;;4.80;3.30;;;12.80;86.50;;;;;;5014948;28;20029;-78
2024/01/30 10:42:03;;;;;;;0.10;0.10;;;12.80;86.10;;;;;;5006156;28;20036;-78
2024/01/30 10:44:33;;;;;;;0.40;0.40;;;12.80;88.10;;;;;;5004905;28;20049;-77
2024/01/30 10:47:06;;;;;;;0.00;0.00;;;12.90;87.20;;;;;;5014413;28;20021;-77
2024/01/30 10:49:33;;;;;;;0.10;0.10;;;13.00;87.00;;;;;;5022115;28;20103;-78
2024/01/30 10:51:59;;;;;;;;;;;13.00;86.50;;;;;;5007514;28;20095;-78
2024/01/30 10:54:26;;;;;;;0.20;0.20;;;13.10;86.20;;;;;;5011614;28;19948;-78
2024/01/30 10:56:53;;;;;;;0.00;0.00;;;13.20;86.10;;;;;;5008359;28;20057;-78
2024/01/30 10:59:19;;;;;;;;;;;13.20;84.90;;;;;;5013618;28;20021;-78
2024/01/30 11:01:45;;;;;;;0.00;0.00;;;13.30;86.30;;;;;;5014366;28;20388;-77
2024/01/30 11:04:11;;;;;;;0.25;0.25;;;13.20;86.00;;;;;;5006046;28;20053;-77
2024/01/30 11:06:42;;;;;;;0.20;0.20;;;13.30;86.20;;;;;;5006382;28;20504;-78
2024/01/30 11:09:12;;;;;;;0.00;0.00;;;13.20;84.60;;;;;;5000249;28;20041;-78
2024/01/30 11:12:01;;;;;;;0.00;0.00;;;13.30;84.30;;;;;;5006658;28;20026;-78
2024/01/30 11:14:29;;;;;;;0.00;0.00;;;13.30;84.90;;;;;;5014817;28;20756;-79
2024/01/30 11:16:59;;;;;;;0.00;0.00;;;13.40;83.90;;;;;;5010584;28;20168;-78
2024/01/30 11:19:26;;;;;;;0.15;0.15;;;13.40;84.80;;;;;;5009370;28;20056;-78
2024/01/30 11:21:56;;;;;;;;;;;13.50;84.60;;;;;;5013398;28;20034;-78
2024/01/30 11:24:26;;;;;;;0.10;0.10;;;13.60;84.70;;;;;;5007372;28;19913;-78
2024/01/30 11:26:59;;;;;;;0.00;0.00;;;13.60;84.30;;;;;;5011458;28;20097;-78
2024/01/30 11:29:26;;;;;;;0.00;0.00;;;13.40;82.70;;;;;;5008487;28;20026;-78
2024/01/30 11:31:56;;;;;;;0.00;0.00;;;13.30;82.80;;;;;;5006469;28;20025;-77
2024/01/30 11:34:22;;;;;;;0.00;0.00;;;13.30;82.40;;;;;;5006738;28;20030;-78
2024/01/30 11:36:55;;;;;;;0.03;0.03;;;13.30;83.20;;;;;;5006869;28;20045;-78
2024/01/30 11:39:22;;;;;;;0.00;0.00;;;13.50;83.80;;;;;;5014842;28;20037;-78
2024/01/30 11:41:51;;;;;;;2.03;0.63;;;13.40;81.70;;;;;;5014458;28;20036;-79
2024/01/30 11:44:16;;;;;;;0.00;0.00;;;13.40;82.20;;;;;;5005065;28;20172;-78
2024/01/30 11:46:43;;;;;;;;;;;13.40;82.00;;;;;;5012724;28;20054;-78
2024/01/30 11:49:09;;;;;;;0.00;0.00;;;13.40;83.10;;;;;;5006324;28;19917;-79
2024/01/30 11:51:35;;;;;;;0.00;0.00;;;13.40;82.70;;;;;;5012195;28;20770;-78
2024/01/30 11:54:01;;;;;;;0.00;0.00;;;13.40;82.80;;;;;;5006598;28;20125;-78
2024/01/30 11:56:27;;;;;;;0.10;0.10;;;13.40;82.40;;;;;;5006354;28;20030;-78
2024/01/30 11:58:52;;;;;;;0.00;0.00;;;13.40;82.90;;;;;;5011023;28;20026;-77
2024/01/30 12:01:18;;;;;;;0.10;0.10;;;13.40;84.10;;;;;;5006346;28;20033;-78
2024/01/30 12:03:50;;;;;;;0.10;0.10;;;13.30;83.00;;;;;;5007426;28;20045;-78
2024/01/30 12:06:16;;;;;;;0.00;0.00;;;13.30;84.90;;;;;;5010048;28;20030;-78
2024/01/30 12:08:42;;;;;;;0.00;0.00;;;13.30;83.40;;;;;;5006822;28;20029;-78
2024/01/30 12:11:07;;;;;;;0.00;0.00;;;13.30;85.20;;;;;;5005928;28;20121;-78
2024/01/30 12:13:33;;;;;;;0.00;0.00;;;13.30;85.90;;;;;;5006418;28;20369;-79
2024/01/30 12:16:00;;;;;;;0.00;0.00;;;13.30;87.00;;;;;;5004268;28;20042;-79
2024/01/30 12:18:26;;;;;;;0.00;0.00;;;13.20;86.20;;;;;;5002155;28;20026;-77
2024/01/30 12:20:59;;;;;;;0.40;0.40;;;13.10;85.30;;;;;;5010096;28;20897;-78
2024/01/30 12:23:26;;;;;;;0.00;0.00;;;13.20;84.20;;;;;;5006445;28;20918;-78
2024/01/30 12:25:52;;;;;;;0.10;0.10;;;13.30;83.90;;;;;;5011684;28;20030;-78
2024/01/30 12:28:19;;;;;;;0.10;0.10;;;13.20;83.50;;;;;;5009521;28;20064;-78
2024/01/30 12:30:44;;;;;;;0.30;0.30;;;13.10;82.80;;;;;;5014016;28;20292;-78
2024/01/30 12:33:17;;;;;;;0.00;0.00;;;13.00;83.10;;;;;;5006263;28;20135;-78
2024/01/30 12:35:47;;;;;;;0.00;0.00;;;13.00;83.80;;;;;;5006356;28;21275;-78
2024/01/30 12:38:13;;;;;;;0.00;0.00;;;13.10;85.20;;;;;;5014673;28;20033;-78
2024/01/30 12:40:39;;;;;;;0.00;0.00;;;13.20;85.40;;;;;;5008189;28;20148;-78
2024/01/30 12:43:05;;;;;;;0.00;0.00;;;13.20;86.90;;;;;;5009493;28;20164;-79
2024/01/30 12:45:30;;;;;;;0.00;0.00;;;13.20;86.60;;;;;;5016094;28;20245;-78
2024/01/30 12:47:56;;;;;;;0.00;0.00;;;13.00;85.10;;;;;;5016011;28;20030;-78
2024/01/30 12:50:22;;;;;;;0.00;0.00;;;13.00;86.40;;;;;;5009881;28;20037;-79